sensor_id;sensor_type;location;lat;lon;timestamp;pressure;altitude;pressure_sealevel;temperature;humidity
4590;BME280;2307;48.448;9.216;2022-07-29T00:00:47;95290.25;;;19.05;100.00
4590;BME280;2307;48.448;9.216;2022-07-29T00:03:14;95286.84;;;19.00;100.00
4590;BME280;2307;48.448;9.216;2022-07-29T00:05:41;95281.19;;;19.01;100.00
4590;BME280;2307;48.448;9.216;2022-07-29T00:08:07;95283.88;;;19.01;100.00
4590;BME280;2307;48.448;9.216;2022-07-29T00:10:34;95282.81;;;19.02;100.00
4590;BME280;2307;48.448;9.216;2022-07-29T00:13:01;95269.13;;;19.04;100.00
4590;BME280;2307;48.448;9.216;2022-07-29T00:15:27;95275.75;;;19.06;100.00
4590;BME280;2307;48.448;9.216;2022-07-29T00:17:55;95276.88;;;19.05;100.00
4590;BME280;2307;48.448;9.216;2022-07-29T00:20:21;95265.63;;;19.03;100.00
4590;BME280;2307;48.448;9.216;2022-07-29T00:22:48;95267.31;;;18.99;100.00
4590;BME280;2307;48.448;9.216;2022-07-29T00:25:14;95267.59;;;18.98;100.00
4590;BME280;2307;48.448;9.216;2022-07-29T00:27:41;95268.91;;;19.00;100.00
4590;BME280;2307;48.448;9.216;2022-07-29T00:30:07;95265.94;;;19.02;100.00
4590;BME280;2307;48.448;9.216;2022-07-29T00:32:34;95258.34;;;18.90;100.00
4590;BME280;2307;48.448;9.216;2022-07-29T00:35:02;95257.84;;;18.88;100.00
4590;BME280;2307;48.448;9.216;2022-07-29T00:37:45;95262.75;;;18.81;100.00
4590;BME280;2307;48.448;9.216;2022-07-29T00:40:12;95261.22;;;18.75;100.00
4590;BME280;2307;48.448;9.216;2022-07-29T00:42:42;95266.34;;;18.72;100.00
4590;BME280;2307;48.448;9.216;2022-07-29T00:45:09;95247.34;;;18.73;100.00
4590;BME280;2307;48.448;9.216;2022-07-29T00:47:35;95258.50;;;18.80;100.00
4590;BME280;2307;48.448;9.216;2022-07-29T00:50:04;95251.91;;;18.73;100.00
4590;BME280;2307;48.448;9.216;2022-07-29T00:52:31;95245.75;;;18.72;100.00
4590;BME280;2307;48.448;9.216;2022-07-29T00:54:58;95242.06;;;18.68;100.00
4590;BME280;2307;48.448;9.216;2022-07-29T00:57:24;95234.03;;;18.68;100.00
4590;BME280;2307;48.448;9.216;2022-07-29T00:59:51;95237.00;;;18.67;100.00
4590;BME280;2307;48.448;9.216;2022-07-29T01:02:17;95229.22;;;18.70;100.00
4590;BME280;2307;48.448;9.216;2022-07-29T01:04:44;95227.59;;;18.69;100.00
4590;BME280;2307;48.448;9.216;2022-07-29T01:07:11;95224.00;;;18.60;100.00
4590;BME280;2307;48.448;9.216;2022-07-29T01:09:38;95223.28;;;18.54;100.00
4590;BME280;2307;48.448;9.216;2022-07-29T01:12:06;95224.06;;;18.55;100.00
4590;BME280;2307;48.448;9.216;2022-07-29T01:14:33;95221.94;;;18.52;100.00
4590;BME280;2307;48.448;9.216;2022-07-29T01:17:01;95225.16;;;18.49;100.00
4590;BME280;2307;48.448;9.216;2022-07-29T01:19:33;95219.81;;;18.49;100.00
4590;BME280;2307;48.448;9.216;2022-07-29T01:22:14;95211.78;;;18.49;100.00
4590;BME280;2307;48.448;9.216;2022-07-29T01:24:50;95215.03;;;18.51;100.00
4590;BME280;2307;48.448;9.216;2022-07-29T01:27:28;95208.63;;;18.47;100.00
4590;BME280;2307;48.448;9.216;2022-07-29T01:30:00;95209.13;;;18.49;100.00
4590;BME280;2307;48.448;9.216;2022-07-29T01:32:29;95207.00;;;18.51;100.00
4590;BME280;2307;48.448;9.216;2022-07-29T01:34:58;95204.59;;;18.49;100.00
4590;BME280;2307;48.448;9.216;2022-07-29T01:37:29;95204.56;;;18.54;100.00
4590;BME280;2307;48.448;9.216;2022-07-29T01:39:58;95213.78;;;18.62;100.00
4590;BME280;2307;48.448;9.216;2022-07-29T01:42:27;95205.94;;;18.71;100.00
4590;BME280;2307;48.448;9.216;2022-07-29T01:44:57;95206.69;;;18.71;100.00
4590;BME280;2307;48.448;9.216;2022-07-29T01:47:35;95198.09;;;18.74;100.00
4590;BME280;2307;48.448;9.216;2022-07-29T01:50:04;95211.47;;;18.74;100.00
4590;BME280;2307;48.448;9.216;2022-07-29T01:52:34;95201.88;;;18.73;100.00
4590;BME280;2307;48.448;9.216;2022-07-29T01:55:03;95205.13;;;18.70;100.00
4590;BME280;2307;48.448;9.216;2022-07-29T01:57:30;95206.28;;;18.64;100.00
4590;BME280;2307;48.448;9.216;2022-07-29T01:59:58;95210.53;;;18.65;100.00
4590;BME280;2307;48.448;9.216;2022-07-29T02:02:27;95208.38;;;18.67;100.00
4590;BME280;2307;48.448;9.216;2022-07-29T02:04:54;95205.13;;;18.70;100.00
4590;BME280;2307;48.448;9.216;2022-07-29T02:07:21;95205.03;;;18.75;100.00
4590;BME280;2307;48.448;9.216;2022-07-29T02:09:47;95213.88;;;18.76;100.00
4590;BME280;2307;48.448;9.216;2022-07-29T02:12:16;95205.03;;;18.75;100.00
4590;BME280;2307;48.448;9.216;2022-07-29T02:14:44;95209.69;;;18.70;100.00
4590;BME280;2307;48.448;9.216;2022-07-29T02:17:12;95210.75;;;18.69;100.00
4590;BME280;2307;48.448;9.216;2022-07-29T02:19:41;95213.22;;;18.65;100.00
4590;BME280;2307;48.448;9.216;2022-07-29T02:22:09;95213.16;;;18.70;100.00
4590;BME280;2307;48.448;9.216;2022-07-29T02:24:37;95211.63;;;18.64;100.00
4590;BME280;2307;48.448;9.216;2022-07-29T02:27:05;95216.53;;;18.57;100.00
4590;BME280;2307;48.448;9.216;2022-07-29T02:29:33;95212.81;;;18.58;100.00
4590;BME280;2307;48.448;9.216;2022-07-29T02:32:01;95211.69;;;18.59;100.00
4590;BME280;2307;48.448;9.216;2022-07-29T02:34:29;95218.50;;;18.51;100.00
4590;BME280;2307;48.448;9.216;2022-07-29T02:36:57;95213.94;;;18.52;100.00
4590;BME280;2307;48.448;9.216;2022-07-29T02:39:24;95202.69;;;18.55;100.00
4590;BME280;2307;48.448;9.216;2022-07-29T02:41:54;95195.91;;;18.39;100.00
4590;BME280;2307;48.448;9.216;2022-07-29T02:44:24;95202.34;;;18.38;100.00
4590;BME280;2307;48.448;9.216;2022-07-29T02:46:51;95210.44;;;18.33;100.00
4590;BME280;2307;48.448;9.216;2022-07-29T02:49:22;95205.38;;;18.31;100.00
4590;BME280;2307;48.448;9.216;2022-07-29T02:51:56;95209.91;;;18.31;100.00
4590;BME280;2307;48.448;9.216;2022-07-29T02:54:27;95210.56;;;18.23;100.00
4590;BME280;2307;48.448;9.216;2022-07-29T02:56:56;95206.56;;;18.20;100.00
4590;BME280;2307;48.448;9.216;2022-07-29T02:59:26;95209.22;;;18.20;100.00
4590;BME280;2307;48.448;9.216;2022-07-29T03:01:54;95215.09;;;18.22;100.00
4590;BME280;2307;48.448;9.216;2022-07-29T03:04:21;95208.38;;;18.25;100.00
4590;BME280;2307;48.448;9.216;2022-07-29T03:06:48;95213.16;;;18.28;100.00
4590;BME280;2307;48.448;9.216;2022-07-29T03:09:16;95213.28;;;18.18;100.00
4590;BME280;2307;48.448;9.216;2022-07-29T03:11:44;95212.09;;;18.05;100.00
4590;BME280;2307;48.448;9.216;2022-07-29T03:14:11;95207.13;;;18.17;100.00
4590;BME280;2307;48.448;9.216;2022-07-29T03:16:38;95216.81;;;18.13;100.00
4590;BME280;2307;48.448;9.216;2022-07-29T03:19:05;95209.72;;;18.03;100.00
4590;BME280;2307;48.448;9.216;2022-07-29T03:21:31;95212.41;;;18.03;100.00
4590;BME280;2307;48.448;9.216;2022-07-29T03:23:58;95219.03;;;18.06;100.00
4590;BME280;2307;48.448;9.216;2022-07-29T03:26:24;95220.34;;;18.09;100.00
4590;BME280;2307;48.448;9.216;2022-07-29T03:28:52;95212.63;;;18.07;100.00
4590;BME280;2307;48.448;9.216;2022-07-29T03:31:19;95219.84;;;18.07;100.00
4590;BME280;2307;48.448;9.216;2022-07-29T03:33:45;95210.00;;;18.02;100.00
4590;BME280;2307;48.448;9.216;2022-07-29T03:36:12;95213.53;;;17.97;100.00
4590;BME280;2307;48.448;9.216;2022-07-29T03:38:38;95221.50;;;18.02;100.00
4590;BME280;2307;48.448;9.216;2022-07-29T03:41:09;95229.28;;;17.99;100.00
4590;BME280;2307;48.448;9.216;2022-07-29T03:43:37;95225.72;;;17.85;100.00
4590;BME280;2307;48.448;9.216;2022-07-29T03:46:06;95232.41;;;17.82;100.00
4590;BME280;2307;48.448;9.216;2022-07-29T03:48:34;95229.94;;;17.86;100.00
4590;BME280;2307;48.448;9.216;2022-07-29T03:51:03;95224.91;;;17.84;100.00
4590;BME280;2307;48.448;9.216;2022-07-29T03:53:29;95225.75;;;17.80;100.00
4590;BME280;2307;48.448;9.216;2022-07-29T03:55:58;95229.22;;;17.80;100.00
4590;BME280;2307;48.448;9.216;2022-07-29T03:58:26;95228.53;;;17.70;100.00
4590;BME280;2307;48.448;9.216;2022-07-29T04:00:52;95227.69;;;17.74;100.00
4590;BME280;2307;48.448;9.216;2022-07-29T04:03:21;95225.00;;;17.74;100.00
4590;BME280;2307;48.448;9.216;2022-07-29T04:05:57;95223.59;;;17.53;100.00
4590;BME280;2307;48.448;9.216;2022-07-29T04:08:23;95228.81;;;17.39;100.00
4590;BME280;2307;48.448;9.216;2022-07-29T04:10:50;95222.00;;;17.52;100.00
4590;BME280;2307;48.448;9.216;2022-07-29T04:13:17;95224.19;;;17.45;100.00
4590;BME280;2307;48.448;9.216;2022-07-29T04:15:44;95227.66;;;17.45;100.00
4590;BME280;2307;48.448;9.216;2022-07-29T04:18:10;95229.53;;;17.45;100.00
4590;BME280;2307;48.448;9.216;2022-07-29T04:20:38;95230.06;;;17.47;100.00
4590;BME280;2307;48.448;9.216;2022-07-29T04:23:04;95237.78;;;17.48;100.00
4590;BME280;2307;48.448;9.216;2022-07-29T04:25:30;95228.94;;;17.53;100.00
4590;BME280;2307;48.448;9.216;2022-07-29T04:27:57;95229.41;;;17.60;100.00
4590;BME280;2307;48.448;9.216;2022-07-29T04:30:26;95233.50;;;17.52;100.00
4590;BME280;2307;48.448;9.216;2022-07-29T04:32:52;95229.75;;;17.53;100.00
4590;BME280;2307;48.448;9.216;2022-07-29T04:35:19;95227.66;;;17.45;100.00
4590;BME280;2307;48.448;9.216;2022-07-29T04:37:47;95226.28;;;17.53;100.00
4590;BME280;2307;48.448;9.216;2022-07-29T04:40:13;95228.25;;;17.42;100.00
4590;BME280;2307;48.448;9.216;2022-07-29T04:42:40;95233.75;;;17.51;100.00
4590;BME280;2307;48.448;9.216;2022-07-29T04:45:06;95231.19;;;17.70;100.00
4590;BME280;2307;48.448;9.216;2022-07-29T04:47:33;95229.31;;;17.70;100.00
4590;BME280;2307;48.448;9.216;2022-07-29T04:49:59;95231.16;;;17.75;100.00
4590;BME280;2307;48.448;9.216;2022-07-29T04:52:25;95228.72;;;17.78;100.00
4590;BME280;2307;48.448;9.216;2022-07-29T04:54:53;95236.41;;;17.85;100.00
4590;BME280;2307;48.448;9.216;2022-07-29T04:57:20;95231.22;;;17.93;100.00
4590;BME280;2307;48.448;9.216;2022-07-29T04:59:46;95236.16;;;18.05;100.00
4590;BME280;2307;48.448;9.216;2022-07-29T05:02:13;95232.41;;;18.06;100.00
4590;BME280;2307;48.448;9.216;2022-07-29T05:04:40;95232.91;;;18.08;100.00
4590;BME280;2307;48.448;9.216;2022-07-29T05:07:06;95236.59;;;18.12;100.00
4590;BME280;2307;48.448;9.216;2022-07-29T05:09:32;95237.66;;;18.16;100.00
4590;BME280;2307;48.448;9.216;2022-07-29T05:12:00;95240.09;;;18.13;100.00
4590;BME280;2307;48.448;9.216;2022-07-29T05:14:27;95250.03;;;18.07;100.00
4590;BME280;2307;48.448;9.216;2022-07-29T05:16:53;95246.56;;;18.07;100.00
4590;BME280;2307;48.448;9.216;2022-07-29T05:19:21;95249.47;;;18.10;100.00
4590;BME280;2307;48.448;9.216;2022-07-29T05:21:48;95246.50;;;18.12;100.00
4590;BME280;2307;48.448;9.216;2022-07-29T05:24:14;95252.09;;;18.15;100.00
4590;BME280;2307;48.448;9.216;2022-07-29T05:26:41;95255.78;;;18.19;100.00
4590;BME280;2307;48.448;9.216;2022-07-29T05:29:09;95251.16;;;18.25;100.00
4590;BME280;2307;48.448;9.216;2022-07-29T05:31:36;95261.28;;;18.28;100.00
4590;BME280;2307;48.448;9.216;2022-07-29T05:34:02;95249.44;;;18.34;100.00
4590;BME280;2307;48.448;9.216;2022-07-29T05:36:29;95261.66;;;18.40;100.00
4590;BME280;2307;48.448;9.216;2022-07-29T05:38:55;95257.63;;;18.42;100.00
4590;BME280;2307;48.448;9.216;2022-07-29T05:41:22;95267.97;;;18.49;100.00
4590;BME280;2307;48.448;9.216;2022-07-29T05:43:49;95272.88;;;18.66;100.00
4590;BME280;2307;48.448;9.216;2022-07-29T05:46:16;95272.38;;;18.82;100.00
4590;BME280;2307;48.448;9.216;2022-07-29T05:48:43;95274.97;;;18.87;100.00
4590;BME280;2307;48.448;9.216;2022-07-29T05:51:09;95284.25;;;18.95;100.00
4590;BME280;2307;48.448;9.216;2022-07-29T05:53:36;95279.25;;;19.07;100.00
4590;BME280;2307;48.448;9.216;2022-07-29T05:56:03;95284.22;;;19.14;100.00
4590;BME280;2307;48.448;9.216;2022-07-29T05:58:30;95284.69;;;19.02;100.00
4590;BME280;2307;48.448;9.216;2022-07-29T06:00:56;95293.56;;;19.16;100.00
4590;BME280;2307;48.448;9.216;2022-07-29T06:03:25;95286.81;;;19.19;100.00
4590;BME280;2307;48.448;9.216;2022-07-29T06:05:51;95298.91;;;19.16;100.00
4590;BME280;2307;48.448;9.216;2022-07-29T06:08:18;95297.13;;;19.12;100.00
4590;BME280;2307;48.448;9.216;2022-07-29T06:10:44;95296.97;;;19.22;100.00
4590;BME280;2307;48.448;9.216;2022-07-29T06:13:11;95291.63;;;19.22;100.00
4590;BME280;2307;48.448;9.216;2022-07-29T06:15:38;95302.94;;;19.32;100.00
4590;BME280;2307;48.448;9.216;2022-07-29T06:18:04;95291.81;;;19.44;100.00
4590;BME280;2307;48.448;9.216;2022-07-29T06:20:35;95301.50;;;19.58;100.00
4590;BME280;2307;48.448;9.216;2022-07-29T06:23:01;95297.63;;;19.65;100.00
4590;BME280;2307;48.448;9.216;2022-07-29T06:25:29;95298.50;;;19.60;100.00
4590;BME280;2307;48.448;9.216;2022-07-29T06:27:57;95297.69;;;19.46;100.00
4590;BME280;2307;48.448;9.216;2022-07-29T06:30:24;95300.84;;;19.48;100.00
4590;BME280;2307;48.448;9.216;2022-07-29T06:32:50;95298.88;;;19.53;100.00
4590;BME280;2307;48.448;9.216;2022-07-29T06:35:16;95296.34;;;19.62;100.00
4590;BME280;2307;48.448;9.216;2022-07-29T06:37:44;95300.00;;;19.66;100.00
4590;BME280;2307;48.448;9.216;2022-07-29T06:40:11;95304.28;;;19.67;100.00
4590;BME280;2307;48.448;9.216;2022-07-29T06:42:55;95303.22;;;19.68;100.00
4590;BME280;2307;48.448;9.216;2022-07-29T06:45:21;95309.59;;;19.72;100.00
4590;BME280;2307;48.448;9.216;2022-07-29T06:47:47;95304.94;;;19.78;100.00
4590;BME280;2307;48.448;9.216;2022-07-29T06:50:14;95304.34;;;19.81;100.00
4590;BME280;2307;48.448;9.216;2022-07-29T06:52:41;95308.72;;;19.90;100.00
4590;BME280;2307;48.448;9.216;2022-07-29T06:55:09;95310.72;;;19.98;100.00
4590;BME280;2307;48.448;9.216;2022-07-29T06:57:36;95310.84;;;20.07;100.00
4590;BME280;2307;48.448;9.216;2022-07-29T07:00:02;95314.50;;;20.11;100.00
4590;BME280;2307;48.448;9.216;2022-07-29T07:02:29;95315.72;;;20.19;100.00
4590;BME280;2307;48.448;9.216;2022-07-29T07:04:56;95327.56;;;20.31;100.00
4590;BME280;2307;48.448;9.216;2022-07-29T07:07:23;95324.19;;;20.39;100.00
4590;BME280;2307;48.448;9.216;2022-07-29T07:09:50;95334.34;;;20.56;100.00
4590;BME280;2307;48.448;9.216;2022-07-29T07:12:18;95328.38;;;20.59;100.00
4590;BME280;2307;48.448;9.216;2022-07-29T07:14:44;95339.78;;;20.64;100.00
4590;BME280;2307;48.448;9.216;2022-07-29T07:17:10;95334.63;;;20.68;100.00
4590;BME280;2307;48.448;9.216;2022-07-29T07:19:37;95340.31;;;20.80;100.00
4590;BME280;2307;48.448;9.216;2022-07-29T07:22:03;95342.38;;;20.83;100.00
4590;BME280;2307;48.448;9.216;2022-07-29T07:24:30;95341.19;;;20.89;100.00
4590;BME280;2307;48.448;9.216;2022-07-29T07:26:56;95345.56;;;20.85;100.00
4590;BME280;2307;48.448;9.216;2022-07-29T07:29:24;95341.94;;;20.90;100.00
4590;BME280;2307;48.448;9.216;2022-07-29T07:31:50;95346.03;;;20.87;100.00
4590;BME280;2307;48.448;9.216;2022-07-29T07:34:17;95347.03;;;20.91;100.00
4590;BME280;2307;48.448;9.216;2022-07-29T07:36:43;95348.94;;;20.91;100.00
4590;BME280;2307;48.448;9.216;2022-07-29T07:39:09;95345.16;;;20.92;100.00
4590;BME280;2307;48.448;9.216;2022-07-29T07:41:36;95358.47;;;21.10;100.00
4590;BME280;2307;48.448;9.216;2022-07-29T07:44:02;95350.41;;;21.24;100.00
4590;BME280;2307;48.448;9.216;2022-07-29T07:46:30;95353.88;;;21.25;100.00
4590;BME280;2307;48.448;9.216;2022-07-29T07:48:57;95352.34;;;21.32;98.56
4590;BME280;2307;48.448;9.216;2022-07-29T07:51:23;95356.41;;;21.43;97.88
4590;BME280;2307;48.448;9.216;2022-07-29T07:53:49;95354.19;;;21.45;88.36
4590;BME280;2307;48.448;9.216;2022-07-29T07:56:16;95358.56;;;21.55;89.55
4590;BME280;2307;48.448;9.216;2022-07-29T07:58:42;95352.56;;;21.58;87.50
4590;BME280;2307;48.448;9.216;2022-07-29T08:01:09;95353.94;;;21.69;84.47
4590;BME280;2307;48.448;9.216;2022-07-29T08:03:37;95355.38;;;21.75;87.76
4590;BME280;2307;48.448;9.216;2022-07-29T08:06:04;95369.59;;;21.89;81.40
4590;BME280;2307;48.448;9.216;2022-07-29T08:08:30;95367.25;;;21.96;78.94
4590;BME280;2307;48.448;9.216;2022-07-29T08:10:57;95360.34;;;22.04;75.53
4590;BME280;2307;48.448;9.216;2022-07-29T08:13:24;95351.66;;;22.07;73.83
4590;BME280;2307;48.448;9.216;2022-07-29T08:15:53;95354.66;;;22.05;75.23
4590;BME280;2307;48.448;9.216;2022-07-29T08:18:24;95362.59;;;22.10;73.12
4590;BME280;2307;48.448;9.216;2022-07-29T08:20:52;95357.56;;;22.17;74.88
4590;BME280;2307;48.448;9.216;2022-07-29T08:23:18;95361.59;;;22.29;71.67
4590;BME280;2307;48.448;9.216;2022-07-29T08:25:45;95357.78;;;22.30;73.15
4590;BME280;2307;48.448;9.216;2022-07-29T08:28:11;95359.09;;;22.32;73.17
4590;BME280;2307;48.448;9.216;2022-07-29T08:30:38;95364.75;;;22.31;68.94
4590;BME280;2307;48.448;9.216;2022-07-29T08:33:04;95357.66;;;22.35;69.69
4590;BME280;2307;48.448;9.216;2022-07-29T08:35:30;95361.19;;;22.44;71.88
4590;BME280;2307;48.448;9.216;2022-07-29T08:37:58;95360.09;;;22.45;73.24
4590;BME280;2307;48.448;9.216;2022-07-29T08:40:25;95358.41;;;22.57;71.42
4590;BME280;2307;48.448;9.216;2022-07-29T08:42:51;95359.72;;;22.68;71.95
4590;BME280;2307;48.448;9.216;2022-07-29T08:45:17;95363.34;;;22.64;70.29
4590;BME280;2307;48.448;9.216;2022-07-29T08:47:44;95368.13;;;22.67;71.13
4590;BME280;2307;48.448;9.216;2022-07-29T08:50:11;95363.41;;;22.81;69.12
4590;BME280;2307;48.448;9.216;2022-07-29T08:52:38;95383.09;;;22.90;70.57
4590;BME280;2307;48.448;9.216;2022-07-29T08:55:07;95372.31;;;22.90;67.66
4590;BME280;2307;48.448;9.216;2022-07-29T08:57:34;95381.84;;;22.96;70.30
4590;BME280;2307;48.448;9.216;2022-07-29T09:00:02;95372.81;;;22.92;68.71
4590;BME280;2307;48.448;9.216;2022-07-29T09:02:29;95373.13;;;22.99;73.13
4590;BME280;2307;48.448;9.216;2022-07-29T09:05:01;95380.09;;;23.00;70.39
4590;BME280;2307;48.448;9.216;2022-07-29T09:07:27;95376.00;;;23.03;71.26
4590;BME280;2307;48.448;9.216;2022-07-29T09:09:54;95379.47;;;22.95;70.29
4590;BME280;2307;48.448;9.216;2022-07-29T09:12:22;95381.72;;;23.01;72.57
4590;BME280;2307;48.448;9.216;2022-07-29T09:14:50;95373.16;;;23.08;72.13
4590;BME280;2307;48.448;9.216;2022-07-29T09:17:16;95370.31;;;23.13;73.57
4590;BME280;2307;48.448;9.216;2022-07-29T09:19:44;95371.78;;;23.27;72.78
4590;BME280;2307;48.448;9.216;2022-07-29T09:22:11;95373.22;;;23.34;66.79
4590;BME280;2307;48.448;9.216;2022-07-29T09:24:38;95366.91;;;23.64;71.61
4590;BME280;2307;48.448;9.216;2022-07-29T09:27:09;95360.09;;;23.75;70.85
4590;BME280;2307;48.448;9.216;2022-07-29T09:29:37;95361.66;;;23.76;68.27
4590;BME280;2307;48.448;9.216;2022-07-29T09:32:05;95367.69;;;23.90;70.29
4590;BME280;2307;48.448;9.216;2022-07-29T09:34:34;95366.22;;;24.01;73.90
4590;BME280;2307;48.448;9.216;2022-07-29T09:37:00;95358.91;;;24.10;66.40
4590;BME280;2307;48.448;9.216;2022-07-29T09:39:27;95369.56;;;24.15;65.70
4590;BME280;2307;48.448;9.216;2022-07-29T09:41:55;95369.56;;;24.15;65.35
4590;BME280;2307;48.448;9.216;2022-07-29T09:44:22;95364.19;;;24.15;65.30
4590;BME280;2307;48.448;9.216;2022-07-29T09:46:57;95369.88;;;24.22;67.00
4590;BME280;2307;48.448;9.216;2022-07-29T09:49:24;95363.47;;;24.36;66.76
4590;BME280;2307;48.448;9.216;2022-07-29T09:52:04;95365.69;;;24.42;64.67
4590;BME280;2307;48.448;9.216;2022-07-29T09:54:31;95364.06;;;24.50;66.15
4590;BME280;2307;48.448;9.216;2022-07-29T09:57:01;95355.78;;;24.55;65.88
4590;BME280;2307;48.448;9.216;2022-07-29T09:59:28;95354.81;;;24.59;64.88
4590;BME280;2307;48.448;9.216;2022-07-29T10:01:54;95360.69;;;24.61;63.45
4590;BME280;2307;48.448;9.216;2022-07-29T10:04:23;95354.63;;;24.73;63.29
4590;BME280;2307;48.448;9.216;2022-07-29T10:06:55;95351.16;;;24.64;61.71
4590;BME280;2307;48.448;9.216;2022-07-29T10:09:22;95346.06;;;24.62;60.87
4590;BME280;2307;48.448;9.216;2022-07-29T10:12:01;95352.09;;;24.68;60.96
4590;BME280;2307;48.448;9.216;2022-07-29T10:14:28;95342.69;;;24.74;57.57
4590;BME280;2307;48.448;9.216;2022-07-29T10:16:55;95342.22;;;24.72;58.33
4590;BME280;2307;48.448;9.216;2022-07-29T10:19:23;95341.88;;;24.82;59.39
4590;BME280;2307;48.448;9.216;2022-07-29T10:21:50;95341.03;;;24.90;59.68
4590;BME280;2307;48.448;9.216;2022-07-29T10:24:17;95333.22;;;24.97;60.53
4590;BME280;2307;48.448;9.216;2022-07-29T10:26:43;95331.06;;;25.11;59.89
4590;BME280;2307;48.448;9.216;2022-07-29T10:29:12;95328.72;;;25.30;59.41
4590;BME280;2307;48.448;9.216;2022-07-29T10:31:41;95331.13;;;25.53;55.42
4590;BME280;2307;48.448;9.216;2022-07-29T10:34:11;95335.97;;;25.59;53.13
4590;BME280;2307;48.448;9.216;2022-07-29T10:36:44;95340.28;;;25.60;53.54
4590;BME280;2307;48.448;9.216;2022-07-29T10:39:17;95338.16;;;25.66;52.90
4590;BME280;2307;48.448;9.216;2022-07-29T10:42:03;95341.03;;;25.81;52.81
4590;BME280;2307;48.448;9.216;2022-07-29T10:44:33;95331.72;;;25.91;52.80
4590;BME280;2307;48.448;9.216;2022-07-29T10:47:00;95338.09;;;26.07;52.94
4590;BME280;2307;48.448;9.216;2022-07-29T10:49:27;95331.66;;;26.00;52.93
4590;BME280;2307;48.448;9.216;2022-07-29T10:51:59;95327.06;;;26.12;52.10
4590;BME280;2307;48.448;9.216;2022-07-29T10:54:36;95329.06;;;26.03;51.24
4590;BME280;2307;48.448;9.216;2022-07-29T10:57:10;95327.59;;;26.06;52.24
4590;BME280;2307;48.448;9.216;2022-07-29T10:59:37;95320.59;;;26.37;51.63
4590;BME280;2307;48.448;9.216;2022-07-29T11:02:08;95318.31;;;26.27;48.92
4590;BME280;2307;48.448;9.216;2022-07-29T11:05:00;95315.31;;;26.08;48.75
4590;BME280;2307;48.448;9.216;2022-07-29T11:07:29;95311.78;;;25.96;48.46
4590;BME280;2307;48.448;9.216;2022-07-29T11:12:46;95311.41;;;25.85;49.56
4590;BME280;2307;48.448;9.216;2022-07-29T11:15:13;95314.25;;;26.01;48.92
4590;BME280;2307;48.448;9.216;2022-07-29T11:20:33;95316.41;;;26.28;48.65
4590;BME280;2307;48.448;9.216;2022-07-29T11:23:01;95321.50;;;26.42;48.75
4590;BME280;2307;48.448;9.216;2022-07-29T11:25:43;95310.22;;;26.52;50.56
4590;BME280;2307;48.448;9.216;2022-07-29T11:28:10;95304.59;;;26.57;52.56
4590;BME280;2307;48.448;9.216;2022-07-29T11:30:49;95311.13;;;26.44;51.48
4590;BME280;2307;48.448;9.216;2022-07-29T11:33:28;95309.28;;;26.35;52.21
4590;BME280;2307;48.448;9.216;2022-07-29T11:36:08;95313.16;;;26.59;51.28
4590;BME280;2307;48.448;9.216;2022-07-29T11:38:36;95312.41;;;26.82;50.41
4590;BME280;2307;48.448;9.216;2022-07-29T11:44:02;95313.97;;;26.83;48.17
4590;BME280;2307;48.448;9.216;2022-07-29T11:46:44;95301.53;;;26.70;48.32
4590;BME280;2307;48.448;9.216;2022-07-29T11:49:11;95312.84;;;26.72;49.11
4590;BME280;2307;48.448;9.216;2022-07-29T11:51:38;95319.50;;;26.87;50.55
4590;BME280;2307;48.448;9.216;2022-07-29T11:54:07;95316.91;;;26.78;52.75
4590;BME280;2307;48.448;9.216;2022-07-29T11:56:36;95325.84;;;26.91;52.83
4590;BME280;2307;48.448;9.216;2022-07-29T11:59:06;95331.94;;;26.88;53.47
4590;BME280;2307;48.448;9.216;2022-07-29T12:01:34;95336.34;;;27.05;53.67
4590;BME280;2307;48.448;9.216;2022-07-29T12:04:03;95327.84;;;27.18;55.41
4590;BME280;2307;48.448;9.216;2022-07-29T12:06:31;95328.50;;;27.27;52.56
4590;BME280;2307;48.448;9.216;2022-07-29T12:08:59;95331.03;;;27.08;51.00
4590;BME280;2307;48.448;9.216;2022-07-29T12:11:27;95328.00;;;26.98;53.48
4590;BME280;2307;48.448;9.216;2022-07-29T12:13:54;95324.94;;;26.87;55.16
4590;BME280;2307;48.448;9.216;2022-07-29T12:16:21;95333.13;;;26.42;58.49
4590;BME280;2307;48.448;9.216;2022-07-29T12:18:54;95326.44;;;26.27;60.26
4590;BME280;2307;48.448;9.216;2022-07-29T12:21:20;95328.38;;;26.51;61.49
4590;BME280;2307;48.448;9.216;2022-07-29T12:23:51;95339.13;;;26.72;60.02
4590;BME280;2307;48.448;9.216;2022-07-29T12:26:18;95334.72;;;26.55;62.00
4590;BME280;2307;48.448;9.216;2022-07-29T12:28:46;95343.34;;;26.24;66.40
4590;BME280;2307;48.448;9.216;2022-07-29T12:31:12;95353.22;;;26.08;66.74
4590;BME280;2307;48.448;9.216;2022-07-29T12:33:39;95359.44;;;25.88;66.25
4590;BME280;2307;48.448;9.216;2022-07-29T12:36:06;95363.00;;;25.38;69.00
4590;BME280;2307;48.448;9.216;2022-07-29T12:38:33;95369.00;;;24.94;76.65
4590;BME280;2307;48.448;9.216;2022-07-29T12:40:59;95376.91;;;24.99;88.85
4590;BME280;2307;48.448;9.216;2022-07-29T12:43:26;95389.75;;;24.64;92.85
4590;BME280;2307;48.448;9.216;2022-07-29T12:45:54;95390.19;;;24.28;95.62
4590;BME280;2307;48.448;9.216;2022-07-29T12:48:32;95391.47;;;24.05;100.00
4590;BME280;2307;48.448;9.216;2022-07-29T12:50:59;95384.31;;;24.01;100.00
4590;BME280;2307;48.448;9.216;2022-07-29T12:53:26;95393.72;;;23.86;100.00
4590;BME280;2307;48.448;9.216;2022-07-29T12:55:54;95393.19;;;23.33;100.00
4590;BME280;2307;48.448;9.216;2022-07-29T12:58:27;95393.44;;;23.05;100.00
4590;BME280;2307;48.448;9.216;2022-07-29T13:03:58;95375.63;;;23.61;100.00
4590;BME280;2307;48.448;9.216;2022-07-29T13:06:27;95373.09;;;23.90;100.00
4590;BME280;2307;48.448;9.216;2022-07-29T13:09:00;95372.41;;;24.10;100.00
4590;BME280;2307;48.448;9.216;2022-07-29T13:11:28;95365.13;;;24.19;100.00
4590;BME280;2307;48.448;9.216;2022-07-29T13:13:54;95357.97;;;23.98;100.00
4590;BME280;2307;48.448;9.216;2022-07-29T13:16:20;95356.84;;;24.24;100.00
4590;BME280;2307;48.448;9.216;2022-07-29T13:18:47;95354.41;;;24.78;100.00
4590;BME280;2307;48.448;9.216;2022-07-29T13:21:15;95355.56;;;25.06;100.00
4590;BME280;2307;48.448;9.216;2022-07-29T13:23:42;95348.41;;;25.31;100.00
4590;BME280;2307;48.448;9.216;2022-07-29T13:26:09;95357.63;;;25.59;100.00
4590;BME280;2307;48.448;9.216;2022-07-29T13:28:36;95348.63;;;25.88;86.20
4590;BME280;2307;48.448;9.216;2022-07-29T13:31:03;95350.94;;;26.10;82.86